createdAt,value
2023-03-08T00:01:24.053Z,47.70
2023-03-08T00:03:53.964Z,48.00
2023-03-08T00:06:22.192Z,48.10
2023-03-08T00:08:49.934Z,48.30
2023-03-08T00:11:18.105Z,48.30
2023-03-08T00:13:45.611Z,48.40
2023-03-08T00:16:14.074Z,48.50
2023-03-08T00:18:41.804Z,48.50
2023-03-08T00:21:16.289Z,48.60
2023-03-08T00:23:44.857Z,48.60
2023-03-08T00:26:13.073Z,48.80
2023-03-08T00:28:42.094Z,48.60
2023-03-08T00:31:12.931Z,49.40
2023-03-08T00:33:40.674Z,48.90
2023-03-08T00:36:18.821Z,48.90
2023-03-08T00:38:48.221Z,48.90
2023-03-08T00:41:15.814Z,49.20
2023-03-08T00:43:43.520Z,49.20
2023-03-08T00:46:12.508Z,49.10
2023-03-08T00:48:40.329Z,49.10
2023-03-08T00:51:12.264Z,49.20
2023-03-08T00:53:39.780Z,49.40
2023-03-08T00:56:07.539Z,49.20
2023-03-08T00:58:39.425Z,49.20
2023-03-08T01:01:09.203Z,49.30
2023-03-08T01:03:36.702Z,49.50
2023-03-08T01:06:11.396Z,49.50
2023-03-08T01:08:42.045Z,49.60
2023-03-08T01:11:18.195Z,49.60
2023-03-08T01:13:47.807Z,50.10
2023-03-08T01:16:25.119Z,50.20
2023-03-08T01:18:53.354Z,50.20
2023-03-08T01:21:21.686Z,50.40
2023-03-08T01:23:49.903Z,50.60
2023-03-08T01:26:21.932Z,50.60
2023-03-08T01:28:50.189Z,51.00
2023-03-08T01:31:27.743Z,50.90
2023-03-08T01:33:57.407Z,51.20
2023-03-08T01:36:27.995Z,51.40
2023-03-08T01:38:55.972Z,51.60
2023-03-08T01:41:30.149Z,51.60
2023-03-08T01:43:57.862Z,51.90
2023-03-08T01:46:36.509Z,51.60
2023-03-08T01:49:30.314Z,52.20
2023-03-08T01:52:18.343Z,52.10
2023-03-08T01:54:54.910Z,52.50
2023-03-08T01:57:30.085Z,52.80
2023-03-08T02:00:09.650Z,52.70
2023-03-08T02:02:53.179Z,53.40
2023-03-08T02:05:21.734Z,53.30
2023-03-08T02:07:52.866Z,53.10
2023-03-08T02:10:21.685Z,53.20
2023-03-08T02:12:49.226Z,53.40
2023-03-08T02:15:20.280Z,53.80
2023-03-08T02:17:51.767Z,54.20
2023-03-08T02:20:32.808Z,54.40
2023-03-08T02:23:17.324Z,54.70
2023-03-08T02:25:59.120Z,54.60
2023-03-08T02:28:27.664Z,55.00
2023-03-08T02:30:56.535Z,55.00
2023-03-08T02:33:24.667Z,55.60
2023-03-08T02:35:52.612Z,55.30
2023-03-08T02:38:21.410Z,55.30
2023-03-08T02:40:51.533Z,55.20
2023-03-08T02:43:20.085Z,55.60
2023-03-08T02:45:47.938Z,55.10
2023-03-08T02:48:16.606Z,55.20
2023-03-08T02:50:44.477Z,55.70
2023-03-08T02:53:12.056Z,55.10
2023-03-08T02:55:39.890Z,55.70
2023-03-08T02:58:12.249Z,55.50
2023-03-08T03:00:40.044Z,55.20
2023-03-08T03:03:07.537Z,55.40
2023-03-08T03:05:35.522Z,55.10
2023-03-08T03:08:06.850Z,55.30
2023-03-08T03:13:06.069Z,55.10
2023-03-08T03:15:37.155Z,55.00
2023-03-08T03:18:05.818Z,55.00
2023-03-08T03:20:34.471Z,55.00
2023-03-08T03:23:02.310Z,55.00
2023-03-08T03:25:40.616Z,55.00
2023-03-08T03:28:12.213Z,54.80
2023-03-08T03:30:40.336Z,54.90
2023-03-08T03:33:11.010Z,55.10
2023-03-08T03:35:39.702Z,54.90
2023-03-08T03:38:08.281Z,55.00
2023-03-08T03:40:36.301Z,55.20
2023-03-08T03:43:05.047Z,55.00
2023-03-08T03:45:32.548Z,54.80
2023-03-08T03:48:00.353Z,54.80
2023-03-08T03:50:28.659Z,54.70
2023-03-08T03:53:01.522Z,54.80
2023-03-08T03:55:29.697Z,54.90
2023-03-08T03:57:57.435Z,54.80
2023-03-08T04:00:24.996Z,54.70
2023-03-08T04:03:04.410Z,54.80
2023-03-08T04:05:33.668Z,54.70
2023-03-08T04:08:01.227Z,54.70
2023-03-08T04:10:31.769Z,54.70
2023-03-08T04:13:00.038Z,54.50
2023-03-08T04:15:28.860Z,54.60
2023-03-08T04:17:58.321Z,55.00
2023-03-08T04:20:28.059Z,54.90
2023-03-08T04:22:59.360Z,55.00
2023-03-08T04:25:36.368Z,55.00
2023-03-08T04:28:05.637Z,55.00
2023-03-08T04:30:33.937Z,55.00
2023-03-08T04:33:03.447Z,55.00
2023-03-08T04:35:39.023Z,55.10
2023-03-08T04:38:07.005Z,55.00
2023-03-08T04:40:55.039Z,55.00
2023-03-08T04:43:22.793Z,54.50
2023-03-08T04:45:51.347Z,54.50
2023-03-08T04:48:19.254Z,54.50
2023-03-08T04:50:56.579Z,55.20
2023-03-08T04:53:26.894Z,54.60
2023-03-08T04:55:55.827Z,54.70
2023-03-08T04:58:24.087Z,54.80
2023-03-08T05:00:51.744Z,54.70
2023-03-08T05:03:19.852Z,54.80
2023-03-08T05:05:55.739Z,54.70
2023-03-08T05:08:23.699Z,54.70
2023-03-08T05:11:00.764Z,54.70
2023-03-08T05:13:37.750Z,55.00
2023-03-08T05:16:08.507Z,54.70
2023-03-08T05:18:36.498Z,54.80
2023-03-08T05:21:08.507Z,54.60
2023-03-08T05:23:37.769Z,54.50
2023-03-08T05:26:07.054Z,54.80
2023-03-08T05:28:37.158Z,54.80
2023-03-08T05:31:09.141Z,54.70
2023-03-08T05:33:39.272Z,54.60
2023-03-08T05:36:08.192Z,54.60
2023-03-08T05:38:36.061Z,54.80
2023-03-08T05:41:13.997Z,54.70
2023-03-08T05:43:44.180Z,54.50
2023-03-08T05:46:18.873Z,54.40
2023-03-08T05:48:47.746Z,54.30
2023-03-08T05:51:19.423Z,54.60
2023-03-08T05:53:47.496Z,54.70
2023-03-08T05:56:20.803Z,54.70
2023-03-08T05:58:55.775Z,55.00
2023-03-08T06:01:28.062Z,54.70
2023-03-08T06:04:01.046Z,54.70
2023-03-08T06:06:34.100Z,54.80
2023-03-08T06:09:04.639Z,55.00
2023-03-08T06:11:35.256Z,55.20
2023-03-08T06:14:03.888Z,54.70
2023-03-08T06:16:33.466Z,55.10
2023-03-08T06:19:02.994Z,54.80
2023-03-08T06:21:31.749Z,54.80
2023-03-08T06:24:04.460Z,54.70
2023-03-08T06:26:32.538Z,54.80
2023-03-08T06:29:00.375Z,54.90
2023-03-08T06:31:31.185Z,55.10
2023-03-08T06:33:58.732Z,55.10
2023-03-08T06:36:28.437Z,55.00
2023-03-08T06:38:56.083Z,54.90
2023-03-08T06:41:25.239Z,54.80
2023-03-08T06:43:56.794Z,54.50
2023-03-08T06:46:24.519Z,55.00
2023-03-08T06:48:52.730Z,55.00
2023-03-08T06:51:20.754Z,54.60
2023-03-08T06:53:48.410Z,54.60
2023-03-08T06:56:19.713Z,54.50
2023-03-08T06:58:47.371Z,54.50
2023-03-08T07:01:15.114Z,54.70
2023-03-08T07:03:44.812Z,54.90
2023-03-08T07:06:12.425Z,55.00
2023-03-08T07:08:40.114Z,54.90
2023-03-08T07:11:09.759Z,55.00
2023-03-08T07:13:38.723Z,55.10
2023-03-08T07:16:13.556Z,55.30
2023-03-08T07:18:41.903Z,55.40
2023-03-08T07:21:10.371Z,55.70
2023-03-08T07:23:37.946Z,55.90
2023-03-08T07:26:07.425Z,56.30
2023-03-08T07:28:35.754Z,56.50
2023-03-08T07:31:03.351Z,56.70
2023-03-08T07:33:30.981Z,57.20
2023-03-08T07:36:02.397Z,58.30
2023-03-08T07:38:30.040Z,59.10
2023-03-08T07:40:57.863Z,59.00
2023-03-08T07:43:25.653Z,59.30
2023-03-08T07:46:02.822Z,59.10
2023-03-08T07:48:31.957Z,59.30
2023-03-08T07:51:09.549Z,60.40
2023-03-08T07:53:37.722Z,63.20
2023-03-08T07:56:06.277Z,63.30
2023-03-08T07:58:33.831Z,64.30
2023-03-08T08:01:01.528Z,64.90
2023-03-08T08:03:29.898Z,65.20
2023-03-08T08:06:01.351Z,65.50
2023-03-08T08:08:28.883Z,64.60
2023-03-08T08:10:56.433Z,64.10
2023-03-08T08:13:23.935Z,64.10
2023-03-08T08:16:02.802Z,63.90
2023-03-08T08:18:30.347Z,65.00
2023-03-08T08:21:10.463Z,64.10
2023-03-08T08:23:39.755Z,65.70
2023-03-08T08:26:12.038Z,65.10
2023-03-08T08:28:40.886Z,66.10
2023-03-08T08:31:13.118Z,65.90
2023-03-08T08:33:41.129Z,66.90
2023-03-08T08:36:15.503Z,67.50
2023-03-08T08:38:49.060Z,68.00
2023-03-08T08:41:19.892Z,68.10
2023-03-08T08:43:48.660Z,70.20
2023-03-08T08:46:17.687Z,70.30
2023-03-08T08:48:45.174Z,70.80
2023-03-08T08:51:13.954Z,71.90
2023-03-08T08:53:41.783Z,70.50
2023-03-08T08:56:26.543Z,71.90
2023-03-08T08:59:02.075Z,71.80
2023-03-08T09:01:35.591Z,72.00
2023-03-08T09:04:03.240Z,71.40
2023-03-08T09:06:31.051Z,71.70
2023-03-08T09:08:59.359Z,71.50
2023-03-08T09:11:27.972Z,72.20
2023-03-08T09:13:55.977Z,71.70
2023-03-08T09:16:34.277Z,71.70
2023-03-08T09:19:04.324Z,72.20
2023-03-08T09:21:33.470Z,72.30
2023-03-08T09:24:05.553Z,72.50
2023-03-08T09:26:34.470Z,72.10
2023-03-08T09:29:05.411Z,71.80
2023-03-08T09:31:35.960Z,71.30
2023-03-08T09:34:08.621Z,72.50
2023-03-08T09:36:39.983Z,71.80
2023-03-08T09:39:10.401Z,71.80
2023-03-08T09:41:54.292Z,72.10
2023-03-08T09:44:51.887Z,72.00
2023-03-08T09:47:49.111Z,71.60
2023-03-08T09:50:35.708Z,72.20
2023-03-08T09:53:27.058Z,72.20
2023-03-08T09:56:29.574Z,72.70
2023-03-08T09:59:30.752Z,72.90
2023-03-08T10:02:59.265Z,72.40
2023-03-08T10:05:44.614Z,72.90
2023-03-08T10:08:33.465Z,73.20
2023-03-08T10:11:13.572Z,73.20
2023-03-08T10:13:47.340Z,72.70
2023-03-08T10:16:22.599Z,73.60
2023-03-08T10:19:05.276Z,74.10
2023-03-08T10:21:37.407Z,74.70
2023-03-08T10:24:44.593Z,75.20
2023-03-08T10:27:23.419Z,76.30
2023-03-08T10:29:58.514Z,77.40
2023-03-08T10:32:28.199Z,77.80
2023-03-08T10:35:04.797Z,78.40
2023-03-08T10:37:33.781Z,80.00
2023-03-08T10:40:20.386Z,80.00
2023-03-08T10:43:05.474Z,81.20
2023-03-08T10:45:33.555Z,81.60
2023-03-08T10:48:04.493Z,81.80
2023-03-08T10:50:36.329Z,82.90
2023-03-08T10:53:24.341Z,82.60
2023-03-08T10:55:52.970Z,82.50
2023-03-08T10:58:38.872Z,82.60
2023-03-08T11:01:22.239Z,83.10
2023-03-08T11:04:07.024Z,82.90
2023-03-08T11:06:35.451Z,83.30
2023-03-08T11:09:18.995Z,82.80
2023-03-08T11:11:46.549Z,82.70
2023-03-08T11:14:15.168Z,82.60
2023-03-08T11:17:13.816Z,82.70
2023-03-08T11:19:51.061Z,82.40
2023-03-08T11:22:27.332Z,82.30
2023-03-08T11:25:27.827Z,82.70
2023-03-08T11:28:36.338Z,83.10
2023-03-08T11:31:44.177Z,84.20
2023-03-08T11:34:55.690Z,83.40
2023-03-08T11:38:04.572Z,83.20
2023-03-08T11:41:19.866Z,82.80
2023-03-08T11:44:12.936Z,82.50
2023-03-08T11:47:13.681Z,82.40
2023-03-08T11:50:21.751Z,81.90
2023-03-08T11:53:00.664Z,82.10
2023-03-08T11:55:52.910Z,81.30
2023-03-08T11:58:41.271Z,80.90
2023-03-08T12:01:35.780Z,80.70
2023-03-08T12:04:24.874Z,81.10
2023-03-08T12:06:54.992Z,80.80
2023-03-08T12:09:42.179Z,80.20
2023-03-08T12:12:56.277Z,79.60
2023-03-08T12:15:49.153Z,78.80
2023-03-08T12:18:34.736Z,78.50
2023-03-08T12:21:34.338Z,78.30
2023-03-08T12:24:33.598Z,77.80
2023-03-08T12:27:26.057Z,77.30
2023-03-08T12:30:11.735Z,77.10
2023-03-08T12:32:42.841Z,76.60
2023-03-08T12:35:22.580Z,76.30
2023-03-08T12:38:18.939Z,76.30
2023-03-08T12:40:55.451Z,75.80
2023-03-08T12:43:22.823Z,75.90
2023-03-08T12:46:08.442Z,76.00
2023-03-08T12:48:45.170Z,75.90
2023-03-08T12:51:12.680Z,75.80
2023-03-08T12:53:51.709Z,75.70
2023-03-08T12:56:53.889Z,75.70
2023-03-08T12:59:21.261Z,75.70
2023-03-08T13:01:57.595Z,75.70
2023-03-08T13:04:40.489Z,75.40
2023-03-08T13:07:40.059Z,75.20
2023-03-08T13:10:25.492Z,74.60
2023-03-08T13:13:18.481Z,74.80
2023-03-08T13:16:26.285Z,74.40
2023-03-08T13:19:09.038Z,74.10
2023-03-08T13:21:47.457Z,74.50
2023-03-08T13:24:32.341Z,74.50
2023-03-08T13:27:34.585Z,73.70
2023-03-08T13:30:33.927Z,73.60
2023-03-08T13:33:08.240Z,73.70
2023-03-08T13:35:35.810Z,73.70
2023-03-08T13:38:03.418Z,73.90
2023-03-08T13:40:31.557Z,74.00
2023-03-08T13:43:05.075Z,74.50
2023-03-08T13:45:32.809Z,74.70
2023-03-08T13:48:08.972Z,74.80
2023-03-08T13:50:43.545Z,75.30
2023-03-08T13:53:18.192Z,76.00
2023-03-08T13:55:51.712Z,77.60
2023-03-08T13:58:33.781Z,78.90
2023-03-08T14:01:14.425Z,80.80
2023-03-08T14:03:43.970Z,82.20
2023-03-08T14:06:30.736Z,82.30
2023-03-08T14:09:02.016Z,82.40
2023-03-08T14:11:38.632Z,82.00
2023-03-08T14:14:15.004Z,82.20
2023-03-08T14:16:43.191Z,82.20
2023-03-08T14:19:38.738Z,82.30
2023-03-08T14:22:37.755Z,83.10
2023-03-08T14:25:07.191Z,82.70
2023-03-08T14:27:41.517Z,82.50
2023-03-08T14:30:15.578Z,82.40
2023-03-08T14:33:16.748Z,83.10
2023-03-08T14:35:53.887Z,83.40
2023-03-08T14:38:30.095Z,83.60
2023-03-08T14:41:03.327Z,83.30
2023-03-08T14:43:30.954Z,83.20
2023-03-08T14:46:05.499Z,83.10
2023-03-08T14:48:37.894Z,83.20
2023-03-08T14:51:24.808Z,84.20
2023-03-08T14:54:02.941Z,84.90
2023-03-08T14:56:32.259Z,86.10
2023-03-08T14:59:02.246Z,86.10
2023-03-08T15:01:35.997Z,86.20
2023-03-08T15:04:12.071Z,87.00
2023-03-08T15:06:41.375Z,88.40
2023-03-08T15:09:09.134Z,88.60
2023-03-08T15:11:36.974Z,88.50
2023-03-08T15:14:04.780Z,88.20
2023-03-08T15:16:32.377Z,87.50
2023-03-08T15:18:59.973Z,87.30
2023-03-08T15:21:29.817Z,86.80
2023-03-08T15:23:58.320Z,85.90
2023-03-08T15:26:31.620Z,85.20
2023-03-08T15:29:03.165Z,84.30
2023-03-08T15:31:31.988Z,83.30
2023-03-08T15:34:00.507Z,81.60
2023-03-08T15:36:32.392Z,81.60
2023-03-08T15:39:01.236Z,81.50
2023-03-08T15:41:28.696Z,81.80
2023-03-08T15:43:56.173Z,82.30
2023-03-08T15:46:23.893Z,82.60
2023-03-08T15:48:51.431Z,85.00
2023-03-08T15:51:21.588Z,85.20
2023-03-08T15:53:50.204Z,86.20
2023-03-08T15:56:17.891Z,86.10
2023-03-08T15:58:45.378Z,86.30
2023-03-08T16:01:12.903Z,86.70
2023-03-08T16:03:40.471Z,87.10
2023-03-08T16:06:16.522Z,87.30
2023-03-08T16:08:44.071Z,88.00
2023-03-08T16:11:15.454Z,87.00
2023-03-08T16:13:43.152Z,87.20
2023-03-08T16:16:10.784Z,87.20
2023-03-08T16:18:40.308Z,87.30
2023-03-08T16:21:09.606Z,86.70
2023-03-08T16:23:39.021Z,86.70
2023-03-08T16:26:16.680Z,86.50
2023-03-08T16:28:47.179Z,86.70
2023-03-08T16:31:16.689Z,86.40
2023-03-08T16:33:44.367Z,87.80
2023-03-08T16:36:12.569Z,89.80
2023-03-08T16:38:41.408Z,91.50
2023-03-08T16:41:13.909Z,92.40
2023-03-08T16:43:47.169Z,93.60
2023-03-08T16:46:19.986Z,93.70
2023-03-08T16:48:49.851Z,94.30
2023-03-08T16:51:20.152Z,94.40
2023-03-08T16:53:48.592Z,94.40
2023-03-08T16:56:25.367Z,93.90
2023-03-08T16:58:55.772Z,94.20
2023-03-08T17:01:24.565Z,94.00
2023-03-08T17:03:52.750Z,94.70
2023-03-08T17:06:24.457Z,94.30
2023-03-08T17:08:52.172Z,94.50
2023-03-08T17:11:23.243Z,95.20
2023-03-08T17:13:55.318Z,95.50
2023-03-08T17:16:27.265Z,96.00
2023-03-08T17:18:55.291Z,96.00
2023-03-08T17:21:23.376Z,96.90
2023-03-08T17:23:52.680Z,97.70
2023-03-08T17:26:23.149Z,98.80
2023-03-08T17:28:52.566Z,99.90
2023-03-08T17:31:22.766Z,99.90
2023-03-08T17:33:51.246Z,99.90
2023-03-08T17:36:20.247Z,99.90
2023-03-08T17:38:47.920Z,99.90
2023-03-08T17:41:16.956Z,99.90
2023-03-08T17:43:44.544Z,99.90
2023-03-08T17:46:24.286Z,99.90
2023-03-08T17:48:53.069Z,99.90
2023-03-08T17:51:25.324Z,99.90
2023-03-08T17:53:53.958Z,99.60
2023-03-08T17:56:29.410Z,99.10
2023-03-08T17:58:59.090Z,99.00
2023-03-08T18:01:30.703Z,98.50
2023-03-08T18:03:58.969Z,97.70
2023-03-08T18:06:35.618Z,96.80
2023-03-08T18:09:07.533Z,96.40
2023-03-08T18:11:37.634Z,96.30
2023-03-08T18:14:12.411Z,96.00
2023-03-08T18:16:40.752Z,95.60
2023-03-08T18:19:08.501Z,95.30
2023-03-08T18:21:36.990Z,94.80
2023-03-08T18:24:05.551Z,94.30
2023-03-08T18:26:33.433Z,93.80
2023-03-08T18:29:00.981Z,93.20
2023-03-08T18:31:30.890Z,92.70
2023-03-08T18:33:58.520Z,92.10
2023-03-08T18:36:26.172Z,92.00
2023-03-08T18:38:53.718Z,91.50
2023-03-08T18:41:26.990Z,91.00
2023-03-08T18:43:56.002Z,90.50
2023-03-08T18:46:28.724Z,90.00
2023-03-08T18:48:58.137Z,89.90
2023-03-08T18:51:25.669Z,90.30
2023-03-08T18:53:55.387Z,90.50
2023-03-08T18:56:25.626Z,90.40
2023-03-08T18:58:55.431Z,90.20
2023-03-08T19:01:24.061Z,90.50
2023-03-08T19:03:52.102Z,90.90
2023-03-08T19:06:19.739Z,91.00
2023-03-08T19:08:47.307Z,91.20
2023-03-08T19:11:21.993Z,91.00
2023-03-08T19:13:50.251Z,91.00
2023-03-08T19:16:23.722Z,91.50
2023-03-08T19:18:59.043Z,93.20
2023-03-08T19:21:39.410Z,94.10
2023-03-08T19:24:07.727Z,95.70
2023-03-08T19:26:37.710Z,97.60
2023-03-08T19:29:12.300Z,98.60
2023-03-08T19:31:50.185Z,99.30
2023-03-08T19:34:19.896Z,99.90
2023-03-08T19:36:48.501Z,99.90
2023-03-08T19:39:23.234Z,99.90
2023-03-08T19:42:01.530Z,99.90
2023-03-08T19:44:30.456Z,99.90
2023-03-08T19:46:58.595Z,99.90
2023-03-08T19:49:30.188Z,99.90
2023-03-08T19:52:01.077Z,99.90
2023-03-08T19:54:30.517Z,99.90
2023-03-08T19:56:59.322Z,99.90
2023-03-08T19:59:27.158Z,99.90
2023-03-08T20:01:55.845Z,99.90
2023-03-08T20:04:24.296Z,99.90
2023-03-08T20:06:52.058Z,99.90
2023-03-08T20:09:23.881Z,99.90
2023-03-08T20:11:57.502Z,99.90
2023-03-08T20:14:27.389Z,99.90
2023-03-08T20:16:56.201Z,99.90
2023-03-08T20:19:23.791Z,99.90
2023-03-08T20:21:51.343Z,99.90
2023-03-08T20:24:19.309Z,99.90
2023-03-08T20:26:47.421Z,99.90
2023-03-08T20:29:15.510Z,99.90
2023-03-08T20:31:44.971Z,99.90
2023-03-08T20:34:12.499Z,99.90
2023-03-08T20:36:39.994Z,99.90
2023-03-08T20:39:07.506Z,99.90
2023-03-08T20:41:35.060Z,99.90
2023-03-08T20:44:02.555Z,99.90
2023-03-08T20:46:33.227Z,99.90
2023-03-08T20:49:01.402Z,99.90
2023-03-08T20:51:29.018Z,99.90
2023-03-08T20:53:57.369Z,99.90
2023-03-08T20:56:26.181Z,99.90
2023-03-08T20:58:56.485Z,99.90
2023-03-08T21:01:31.939Z,99.90
2023-03-08T21:03:59.562Z,99.90
2023-03-08T21:06:30.523Z,99.90
2023-03-08T21:08:59.737Z,99.90
2023-03-08T21:11:28.641Z,99.90
2023-03-08T21:13:56.530Z,99.90
2023-03-08T21:16:26.632Z,99.90
2023-03-08T21:18:58.001Z,99.90
2023-03-08T21:21:36.053Z,99.90
2023-03-08T21:24:15.274Z,99.90
2023-03-08T21:26:44.170Z,99.90
2023-03-08T21:29:15.363Z,99.90
2023-03-08T21:31:48.330Z,99.90
2023-03-08T21:34:17.282Z,99.90
2023-03-08T21:36:45.195Z,99.90
2023-03-08T21:39:13.608Z,99.90
2023-03-08T21:41:44.529Z,99.90
2023-03-08T21:44:16.661Z,99.90
2023-03-08T21:46:46.379Z,99.90
2023-03-08T21:49:21.666Z,99.90
2023-03-08T21:51:50.217Z,99.90
2023-03-08T21:54:18.712Z,99.90
2023-03-08T21:56:47.046Z,99.90
2023-03-08T21:59:16.733Z,99.90
2023-03-08T22:01:48.289Z,99.90
2023-03-08T22:04:16.983Z,99.90
2023-03-08T22:06:44.586Z,99.90
2023-03-08T22:09:12.093Z,99.90
2023-03-08T22:11:40.168Z,99.90
2023-03-08T22:14:08.248Z,99.90
2023-03-08T22:16:41.761Z,99.90
2023-03-08T22:19:10.257Z,99.90
2023-03-08T22:21:37.919Z,99.90
2023-03-08T22:24:06.010Z,99.90
2023-03-08T22:26:33.599Z,99.90
2023-03-08T22:29:01.211Z,99.90
2023-03-08T22:31:30.288Z,99.90
2023-03-08T22:33:58.453Z,99.90
2023-03-08T22:36:25.985Z,99.90
2023-03-08T22:38:53.731Z,99.90
2023-03-08T22:41:24.959Z,99.90
2023-03-08T22:43:53.435Z,99.90
2023-03-08T22:46:24.692Z,99.90
2023-03-08T22:48:54.361Z,99.90
2023-03-08T22:51:23.032Z,99.90
2023-03-08T22:53:51.218Z,99.90
2023-03-08T22:56:29.489Z,99.90
2023-03-08T22:58:57.582Z,99.90
2023-03-08T23:01:26.342Z,99.90
2023-03-08T23:03:57.119Z,99.90
2023-03-08T23:06:28.036Z,99.90
2023-03-08T23:08:58.159Z,99.90
2023-03-08T23:11:26.878Z,99.90
2023-03-08T23:13:54.656Z,99.90
2023-03-08T23:16:22.596Z,99.90
2023-03-08T23:18:52.218Z,99.90
2023-03-08T23:21:22.968Z,99.90
2023-03-08T23:23:50.683Z,99.90
2023-03-08T23:26:23.788Z,99.90
2023-03-08T23:28:51.444Z,99.90
2023-03-08T23:31:22.721Z,99.90
2023-03-08T23:33:51.389Z,99.90
2023-03-08T23:36:22.322Z,99.90
2023-03-08T23:38:50.459Z,99.90
2023-03-08T23:41:18.518Z,99.90
2023-03-08T23:43:46.894Z,99.90
2023-03-08T23:46:19.138Z,99.90
2023-03-08T23:48:48.688Z,99.90
2023-03-08T23:51:19.957Z,99.90
2023-03-08T23:53:53.317Z,99.90
2023-03-08T23:56:43.009Z,99.90
2023-03-08T23:59:12.064Z,99.90
